sensor_id;sensor_type;location;lat;lon;timestamp;P1;durP1;ratioP1;P2;durP2;ratioP2
7515;SDS011;3799;47.184;8.538;2023-04-25T00:00:18;4.50;;;1.88;;
7515;SDS011;3799;47.184;8.538;2023-04-25T00:02:57;4.95;;;2.60;;
7515;SDS011;3799;47.184;8.538;2023-04-25T00:05:26;5.18;;;2.13;;
7515;SDS011;3799;47.184;8.538;2023-04-25T00:07:53;4.97;;;1.50;;
7515;SDS011;3799;47.184;8.538;2023-04-25T00:10:24;3.50;;;1.65;;
7515;SDS011;3799;47.184;8.538;2023-04-25T00:12:51;3.45;;;2.22;;
7515;SDS011;3799;47.184;8.538;2023-04-25T00:15:19;5.22;;;2.13;;
7515;SDS011;3799;47.184;8.538;2023-04-25T00:17:46;3.22;;;1.33;;
7515;SDS011;3799;47.184;8.538;2023-04-25T00:20:14;3.35;;;1.83;;
7515;SDS011;3799;47.184;8.538;2023-04-25T00:22:42;4.85;;;2.25;;
7515;SDS011;3799;47.184;8.538;2023-04-25T00:25:09;3.97;;;1.85;;
7515;SDS011;3799;47.184;8.538;2023-04-25T00:27:36;3.80;;;2.03;;
7515;SDS011;3799;47.184;8.538;2023-04-25T00:30:05;3.25;;;1.83;;
7515;SDS011;3799;47.184;8.538;2023-04-25T00:32:37;3.38;;;2.30;;
7515;SDS011;3799;47.184;8.538;2023-04-25T00:35:05;3.83;;;1.40;;
7515;SDS011;3799;47.184;8.538;2023-04-25T00:37:33;5.45;;;1.85;;
7515;SDS011;3799;47.184;8.538;2023-04-25T00:40:00;3.72;;;1.90;;
7515;SDS011;3799;47.184;8.538;2023-04-25T00:42:28;7.07;;;2.13;;
7515;SDS011;3799;47.184;8.538;2023-04-25T00:44:56;4.28;;;1.80;;
7515;SDS011;3799;47.184;8.538;2023-04-25T00:47:25;4.20;;;1.40;;
7515;SDS011;3799;47.184;8.538;2023-04-25T00:49:52;4.60;;;1.70;;
7515;SDS011;3799;47.184;8.538;2023-04-25T00:52:20;3.80;;;2.00;;
7515;SDS011;3799;47.184;8.538;2023-04-25T00:54:47;5.47;;;1.85;;
7515;SDS011;3799;47.184;8.538;2023-04-25T00:59:45;4.40;;;1.90;;
7515;SDS011;3799;47.184;8.538;2023-04-25T01:02:13;3.38;;;1.85;;
7515;SDS011;3799;47.184;8.538;2023-04-25T01:04:40;6.50;;;1.73;;
7515;SDS011;3799;47.184;8.538;2023-04-25T01:07:08;4.50;;;1.77;;
7515;SDS011;3799;47.184;8.538;2023-04-25T01:09:37;2.83;;;1.33;;
7515;SDS011;3799;47.184;8.538;2023-04-25T01:12:04;3.15;;;1.23;;
7515;SDS011;3799;47.184;8.538;2023-04-25T01:14:32;4.72;;;1.52;;
7515;SDS011;3799;47.184;8.538;2023-04-25T01:16:59;3.63;;;1.42;;
7515;SDS011;3799;47.184;8.538;2023-04-25T01:19:27;4.10;;;1.10;;
7515;SDS011;3799;47.184;8.538;2023-04-25T01:21:55;5.90;;;1.75;;
7515;SDS011;3799;47.184;8.538;2023-04-25T01:24:22;7.60;;;1.50;;
7515;SDS011;3799;47.184;8.538;2023-04-25T01:26:50;3.92;;;1.27;;
7515;SDS011;3799;47.184;8.538;2023-04-25T01:29:19;3.42;;;1.27;;
7515;SDS011;3799;47.184;8.538;2023-04-25T01:31:47;5.05;;;1.38;;
7515;SDS011;3799;47.184;8.538;2023-04-25T01:34:14;3.80;;;1.20;;
7515;SDS011;3799;47.184;8.538;2023-04-25T01:36:41;8.68;;;1.08;;
7515;SDS011;3799;47.184;8.538;2023-04-25T01:39:09;3.45;;;1.10;;
7515;SDS011;3799;47.184;8.538;2023-04-25T01:41:37;6.50;;;1.48;;
7515;SDS011;3799;47.184;8.538;2023-04-25T01:44:05;3.20;;;1.20;;
7515;SDS011;3799;47.184;8.538;2023-04-25T01:46:38;5.40;;;1.40;;
7515;SDS011;3799;47.184;8.538;2023-04-25T01:49:06;4.32;;;1.30;;
7515;SDS011;3799;47.184;8.538;2023-04-25T01:51:33;6.82;;;1.55;;
7515;SDS011;3799;47.184;8.538;2023-04-25T01:54:01;4.97;;;1.33;;
7515;SDS011;3799;47.184;8.538;2023-04-25T01:56:29;4.53;;;1.15;;
7515;SDS011;3799;47.184;8.538;2023-04-25T01:59:04;6.30;;;1.35;;
7515;SDS011;3799;47.184;8.538;2023-04-25T02:01:32;3.95;;;1.20;;
7515;SDS011;3799;47.184;8.538;2023-04-25T02:04:00;3.33;;;1.30;;
7515;SDS011;3799;47.184;8.538;2023-04-25T02:06:28;4.10;;;1.27;;
7515;SDS011;3799;47.184;8.538;2023-04-25T02:08:55;4.35;;;1.13;;
7515;SDS011;3799;47.184;8.538;2023-04-25T02:11:23;4.88;;;1.20;;
7515;SDS011;3799;47.184;8.538;2023-04-25T02:13:50;10.15;;;1.50;;
7515;SDS011;3799;47.184;8.538;2023-04-25T02:16:18;5.32;;;1.50;;
7515;SDS011;3799;47.184;8.538;2023-04-25T02:18:46;2.63;;;1.00;;
7515;SDS011;3799;47.184;8.538;2023-04-25T02:21:13;3.25;;;0.85;;
7515;SDS011;3799;47.184;8.538;2023-04-25T02:23:41;2.88;;;1.75;;
7515;SDS011;3799;47.184;8.538;2023-04-25T02:26:16;5.00;;;1.42;;
7515;SDS011;3799;47.184;8.538;2023-04-25T02:28:43;4.80;;;1.45;;
7515;SDS011;3799;47.184;8.538;2023-04-25T02:31:10;3.85;;;1.20;;
7515;SDS011;3799;47.184;8.538;2023-04-25T02:33:38;3.45;;;1.20;;
7515;SDS011;3799;47.184;8.538;2023-04-25T02:36:05;4.22;;;1.52;;
7515;SDS011;3799;47.184;8.538;2023-04-25T02:38:33;4.85;;;1.27;;
7515;SDS011;3799;47.184;8.538;2023-04-25T02:41:08;6.60;;;1.88;;
7515;SDS011;3799;47.184;8.538;2023-04-25T02:43:36;2.17;;;1.08;;
7515;SDS011;3799;47.184;8.538;2023-04-25T02:46:04;2.53;;;1.33;;
7515;SDS011;3799;47.184;8.538;2023-04-25T02:48:32;3.33;;;1.33;;
7515;SDS011;3799;47.184;8.538;2023-04-25T02:51:00;5.53;;;1.25;;
7515;SDS011;3799;47.184;8.538;2023-04-25T02:53:27;4.13;;;1.25;;
7515;SDS011;3799;47.184;8.538;2023-04-25T02:55:54;4.38;;;1.48;;
7515;SDS011;3799;47.184;8.538;2023-04-25T02:58:25;3.13;;;1.15;;
7515;SDS011;3799;47.184;8.538;2023-04-25T03:00:53;4.70;;;1.17;;
7515;SDS011;3799;47.184;8.538;2023-04-25T03:03:21;3.03;;;1.45;;
7515;SDS011;3799;47.184;8.538;2023-04-25T03:05:50;3.35;;;1.50;;
7515;SDS011;3799;47.184;8.538;2023-04-25T03:08:18;4.78;;;1.60;;
7515;SDS011;3799;47.184;8.538;2023-04-25T03:10:45;5.63;;;1.40;;
7515;SDS011;3799;47.184;8.538;2023-04-25T03:13:20;6.68;;;1.30;;
7515;SDS011;3799;47.184;8.538;2023-04-25T03:15:48;6.15;;;1.88;;
7515;SDS011;3799;47.184;8.538;2023-04-25T03:18:15;4.60;;;1.10;;
7515;SDS011;3799;47.184;8.538;2023-04-25T03:20:43;4.35;;;1.35;;
7515;SDS011;3799;47.184;8.538;2023-04-25T03:23:19;4.47;;;1.38;;
7515;SDS011;3799;47.184;8.538;2023-04-25T03:25:47;5.78;;;1.60;;
7515;SDS011;3799;47.184;8.538;2023-04-25T03:28:14;3.70;;;1.20;;
7515;SDS011;3799;47.184;8.538;2023-04-25T03:30:42;6.35;;;1.40;;
7515;SDS011;3799;47.184;8.538;2023-04-25T03:33:10;3.47;;;1.42;;
7515;SDS011;3799;47.184;8.538;2023-04-25T03:35:37;6.18;;;1.38;;
7515;SDS011;3799;47.184;8.538;2023-04-25T03:38:18;3.05;;;1.50;;
7515;SDS011;3799;47.184;8.538;2023-04-25T03:40:46;5.40;;;1.05;;
7515;SDS011;3799;47.184;8.538;2023-04-25T03:43:14;3.55;;;1.42;;
7515;SDS011;3799;47.184;8.538;2023-04-25T03:45:42;5.57;;;1.45;;
7515;SDS011;3799;47.184;8.538;2023-04-25T03:48:10;6.53;;;1.55;;
7515;SDS011;3799;47.184;8.538;2023-04-25T03:50:38;4.00;;;2.00;;
7515;SDS011;3799;47.184;8.538;2023-04-25T03:53:05;3.15;;;1.25;;
7515;SDS011;3799;47.184;8.538;2023-04-25T03:55:33;3.85;;;1.40;;
7515;SDS011;3799;47.184;8.538;2023-04-25T03:58:00;6.72;;;1.65;;
7515;SDS011;3799;47.184;8.538;2023-04-25T04:00:37;3.78;;;1.17;;
7515;SDS011;3799;47.184;8.538;2023-04-25T04:03:04;3.55;;;1.05;;
7515;SDS011;3799;47.184;8.538;2023-04-25T04:05:32;5.85;;;1.45;;
7515;SDS011;3799;47.184;8.538;2023-04-25T04:08:00;4.47;;;1.52;;
7515;SDS011;3799;47.184;8.538;2023-04-25T04:10:27;3.45;;;1.25;;
7515;SDS011;3799;47.184;8.538;2023-04-25T04:12:59;6.07;;;1.30;;
7515;SDS011;3799;47.184;8.538;2023-04-25T04:15:26;3.00;;;1.38;;
7515;SDS011;3799;47.184;8.538;2023-04-25T04:17:54;3.45;;;1.13;;
7515;SDS011;3799;47.184;8.538;2023-04-25T04:20:21;4.47;;;1.60;;
7515;SDS011;3799;47.184;8.538;2023-04-25T04:22:49;3.97;;;1.80;;
7515;SDS011;3799;47.184;8.538;2023-04-25T04:25:17;3.65;;;1.70;;
7515;SDS011;3799;47.184;8.538;2023-04-25T04:27:45;3.88;;;1.30;;
7515;SDS011;3799;47.184;8.538;2023-04-25T04:30:14;3.83;;;1.40;;
7515;SDS011;3799;47.184;8.538;2023-04-25T04:32:41;2.92;;;1.45;;
7515;SDS011;3799;47.184;8.538;2023-04-25T04:35:08;4.22;;;1.35;;
7515;SDS011;3799;47.184;8.538;2023-04-25T04:37:37;3.78;;;1.70;;
7515;SDS011;3799;47.184;8.538;2023-04-25T04:40:05;3.15;;;1.38;;
7515;SDS011;3799;47.184;8.538;2023-04-25T04:42:33;6.18;;;2.58;;
7515;SDS011;3799;47.184;8.538;2023-04-25T04:45:01;4.43;;;1.70;;
7515;SDS011;3799;47.184;8.538;2023-04-25T04:47:32;2.67;;;1.63;;
7515;SDS011;3799;47.184;8.538;2023-04-25T04:52:30;5.82;;;2.65;;
7515;SDS011;3799;47.184;8.538;2023-04-25T04:54:57;7.90;;;2.15;;
7515;SDS011;3799;47.184;8.538;2023-04-25T04:57:25;5.30;;;2.00;;
7515;SDS011;3799;47.184;8.538;2023-04-25T04:59:52;4.40;;;1.83;;
7515;SDS011;3799;47.184;8.538;2023-04-25T05:02:20;5.95;;;2.13;;
7515;SDS011;3799;47.184;8.538;2023-04-25T05:04:47;10.63;;;2.25;;
7515;SDS011;3799;47.184;8.538;2023-04-25T05:07:15;7.82;;;1.90;;
7515;SDS011;3799;47.184;8.538;2023-04-25T05:09:43;2.95;;;1.38;;
7515;SDS011;3799;47.184;8.538;2023-04-25T05:12:10;6.57;;;1.52;;
7515;SDS011;3799;47.184;8.538;2023-04-25T05:14:38;4.90;;;1.73;;
7515;SDS011;3799;47.184;8.538;2023-04-25T05:17:22;5.05;;;1.60;;
7515;SDS011;3799;47.184;8.538;2023-04-25T05:19:49;7.45;;;1.75;;
7515;SDS011;3799;47.184;8.538;2023-04-25T05:22:17;5.15;;;1.75;;
7515;SDS011;3799;47.184;8.538;2023-04-25T05:24:44;4.32;;;1.70;;
7515;SDS011;3799;47.184;8.538;2023-04-25T05:27:12;4.05;;;1.23;;
7515;SDS011;3799;47.184;8.538;2023-04-25T05:29:39;3.78;;;1.17;;
7515;SDS011;3799;47.184;8.538;2023-04-25T05:32:07;3.95;;;1.20;;
7515;SDS011;3799;47.184;8.538;2023-04-25T05:34:36;3.75;;;1.13;;
7515;SDS011;3799;47.184;8.538;2023-04-25T05:37:04;2.83;;;0.95;;
7515;SDS011;3799;47.184;8.538;2023-04-25T05:39:31;2.33;;;1.05;;
7515;SDS011;3799;47.184;8.538;2023-04-25T05:42:04;2.47;;;1.02;;
7515;SDS011;3799;47.184;8.538;2023-04-25T05:44:32;2.70;;;0.65;;
7515;SDS011;3799;47.184;8.538;2023-04-25T05:47:00;4.97;;;0.93;;
7515;SDS011;3799;47.184;8.538;2023-04-25T05:49:28;3.60;;;1.00;;
7515;SDS011;3799;47.184;8.538;2023-04-25T05:54:31;3.75;;;0.93;;
7515;SDS011;3799;47.184;8.538;2023-04-25T05:56:59;3.70;;;0.77;;
7515;SDS011;3799;47.184;8.538;2023-04-25T05:59:40;1.92;;;0.68;;
7515;SDS011;3799;47.184;8.538;2023-04-25T06:02:08;2.20;;;0.85;;
7515;SDS011;3799;47.184;8.538;2023-04-25T06:04:35;2.80;;;0.65;;
7515;SDS011;3799;47.184;8.538;2023-04-25T06:07:03;5.05;;;0.88;;
7515;SDS011;3799;47.184;8.538;2023-04-25T06:09:31;2.45;;;0.80;;
7515;SDS011;3799;47.184;8.538;2023-04-25T06:11:59;3.28;;;0.82;;
7515;SDS011;3799;47.184;8.538;2023-04-25T06:14:27;1.92;;;1.02;;
7515;SDS011;3799;47.184;8.538;2023-04-25T06:16:55;2.08;;;0.98;;
7515;SDS011;3799;47.184;8.538;2023-04-25T06:19:23;2.95;;;0.60;;
7515;SDS011;3799;47.184;8.538;2023-04-25T06:21:50;2.65;;;0.50;;
7515;SDS011;3799;47.184;8.538;2023-04-25T06:24:18;3.10;;;0.80;;
7515;SDS011;3799;47.184;8.538;2023-04-25T06:26:46;2.25;;;0.85;;
7515;SDS011;3799;47.184;8.538;2023-04-25T06:29:25;2.13;;;0.60;;
7515;SDS011;3799;47.184;8.538;2023-04-25T06:31:53;1.40;;;0.63;;
7515;SDS011;3799;47.184;8.538;2023-04-25T06:34:20;3.08;;;1.33;;
7515;SDS011;3799;47.184;8.538;2023-04-25T06:36:48;2.78;;;1.08;;
7515;SDS011;3799;47.184;8.538;2023-04-25T06:39:15;3.30;;;0.98;;
7515;SDS011;3799;47.184;8.538;2023-04-25T06:41:43;3.95;;;1.08;;
7515;SDS011;3799;47.184;8.538;2023-04-25T06:44:11;3.08;;;1.20;;
7515;SDS011;3799;47.184;8.538;2023-04-25T06:46:41;6.15;;;1.60;;
7515;SDS011;3799;47.184;8.538;2023-04-25T06:49:11;2.15;;;1.20;;
7515;SDS011;3799;47.184;8.538;2023-04-25T06:51:40;2.33;;;1.00;;
7515;SDS011;3799;47.184;8.538;2023-04-25T06:54:07;7.05;;;1.00;;
7515;SDS011;3799;47.184;8.538;2023-04-25T06:56:43;3.20;;;0.95;;
7515;SDS011;3799;47.184;8.538;2023-04-25T06:59:10;2.58;;;1.05;;
7515;SDS011;3799;47.184;8.538;2023-04-25T07:01:38;4.10;;;1.20;;
7515;SDS011;3799;47.184;8.538;2023-04-25T07:04:05;7.25;;;1.20;;
7515;SDS011;3799;47.184;8.538;2023-04-25T07:06:33;3.63;;;1.33;;
7515;SDS011;3799;47.184;8.538;2023-04-25T07:09:00;3.40;;;1.30;;
7515;SDS011;3799;47.184;8.538;2023-04-25T07:11:29;3.13;;;1.30;;
7515;SDS011;3799;47.184;8.538;2023-04-25T07:13:56;5.45;;;1.27;;
7515;SDS011;3799;47.184;8.538;2023-04-25T07:16:23;6.30;;;1.80;;
7515;SDS011;3799;47.184;8.538;2023-04-25T07:18:52;5.10;;;1.70;;
7515;SDS011;3799;47.184;8.538;2023-04-25T07:21:19;3.28;;;2.00;;
7515;SDS011;3799;47.184;8.538;2023-04-25T07:23:51;4.07;;;1.13;;
7515;SDS011;3799;47.184;8.538;2023-04-25T07:26:19;3.50;;;1.23;;
7515;SDS011;3799;47.184;8.538;2023-04-25T07:28:54;5.82;;;1.48;;
7515;SDS011;3799;47.184;8.538;2023-04-25T07:31:21;4.85;;;1.13;;
7515;SDS011;3799;47.184;8.538;2023-04-25T07:33:51;6.15;;;1.20;;
7515;SDS011;3799;47.184;8.538;2023-04-25T07:36:18;3.60;;;1.23;;
7515;SDS011;3799;47.184;8.538;2023-04-25T07:38:47;2.42;;;1.33;;
7515;SDS011;3799;47.184;8.538;2023-04-25T07:41:15;3.08;;;1.50;;
7515;SDS011;3799;47.184;8.538;2023-04-25T07:43:45;3.90;;;1.60;;
7515;SDS011;3799;47.184;8.538;2023-04-25T07:46:22;2.75;;;1.25;;
7515;SDS011;3799;47.184;8.538;2023-04-25T07:48:50;7.35;;;1.60;;
7515;SDS011;3799;47.184;8.538;2023-04-25T07:51:20;2.15;;;1.00;;
7515;SDS011;3799;47.184;8.538;2023-04-25T07:53:49;3.28;;;1.38;;
7515;SDS011;3799;47.184;8.538;2023-04-25T07:56:18;4.13;;;1.52;;
7515;SDS011;3799;47.184;8.538;2023-04-25T07:58:45;4.35;;;1.55;;
7515;SDS011;3799;47.184;8.538;2023-04-25T08:01:15;3.10;;;1.23;;
7515;SDS011;3799;47.184;8.538;2023-04-25T08:03:43;4.38;;;1.15;;
7515;SDS011;3799;47.184;8.538;2023-04-25T08:06:11;4.45;;;1.63;;
7515;SDS011;3799;47.184;8.538;2023-04-25T08:08:38;5.18;;;1.48;;
7515;SDS011;3799;47.184;8.538;2023-04-25T08:11:09;4.35;;;1.30;;
7515;SDS011;3799;47.184;8.538;2023-04-25T08:13:37;3.53;;;1.65;;
7515;SDS011;3799;47.184;8.538;2023-04-25T08:16:04;2.30;;;1.05;;
7515;SDS011;3799;47.184;8.538;2023-04-25T08:18:32;3.08;;;1.10;;
7515;SDS011;3799;47.184;8.538;2023-04-25T08:20:59;4.22;;;1.23;;
7515;SDS011;3799;47.184;8.538;2023-04-25T08:23:29;2.38;;;1.20;;
7515;SDS011;3799;47.184;8.538;2023-04-25T08:25:57;2.85;;;0.98;;
7515;SDS011;3799;47.184;8.538;2023-04-25T08:28:24;2.47;;;0.63;;
7515;SDS011;3799;47.184;8.538;2023-04-25T08:30:52;1.85;;;0.80;;
7515;SDS011;3799;47.184;8.538;2023-04-25T08:33:19;3.00;;;0.95;;
7515;SDS011;3799;47.184;8.538;2023-04-25T08:35:47;3.47;;;0.98;;
7515;SDS011;3799;47.184;8.538;2023-04-25T08:38:18;2.85;;;1.10;;
7515;SDS011;3799;47.184;8.538;2023-04-25T08:40:49;1.35;;;0.63;;
7515;SDS011;3799;47.184;8.538;2023-04-25T08:43:19;2.03;;;0.55;;
7515;SDS011;3799;47.184;8.538;2023-04-25T08:45:47;1.15;;;0.70;;
7515;SDS011;3799;47.184;8.538;2023-04-25T08:48:16;1.58;;;0.60;;
7515;SDS011;3799;47.184;8.538;2023-04-25T08:53:22;2.63;;;0.68;;
7515;SDS011;3799;47.184;8.538;2023-04-25T08:55:57;4.50;;;0.60;;
7515;SDS011;3799;47.184;8.538;2023-04-25T08:58:29;1.73;;;0.80;;
7515;SDS011;3799;47.184;8.538;2023-04-25T09:00:57;5.30;;;0.93;;
7515;SDS011;3799;47.184;8.538;2023-04-25T09:03:27;1.85;;;0.95;;
7515;SDS011;3799;47.184;8.538;2023-04-25T09:05:55;1.55;;;0.80;;
7515;SDS011;3799;47.184;8.538;2023-04-25T09:08:22;4.13;;;0.85;;
7515;SDS011;3799;47.184;8.538;2023-04-25T09:10:50;2.35;;;1.00;;
7515;SDS011;3799;47.184;8.538;2023-04-25T09:13:23;3.50;;;0.88;;
7515;SDS011;3799;47.184;8.538;2023-04-25T09:15:53;3.17;;;0.80;;
7515;SDS011;3799;47.184;8.538;2023-04-25T09:18:25;2.50;;;0.70;;
7515;SDS011;3799;47.184;8.538;2023-04-25T09:21:14;3.10;;;0.80;;
7515;SDS011;3799;47.184;8.538;2023-04-25T09:23:46;3.08;;;0.80;;
7515;SDS011;3799;47.184;8.538;2023-04-25T09:26:19;3.55;;;1.00;;
7515;SDS011;3799;47.184;8.538;2023-04-25T09:28:47;2.88;;;0.70;;
7515;SDS011;3799;47.184;8.538;2023-04-25T09:31:21;1.30;;;0.63;;
7515;SDS011;3799;47.184;8.538;2023-04-25T09:33:59;2.55;;;0.90;;
7515;SDS011;3799;47.184;8.538;2023-04-25T09:36:29;3.33;;;0.70;;
7515;SDS011;3799;47.184;8.538;2023-04-25T09:38:57;3.17;;;0.90;;
7515;SDS011;3799;47.184;8.538;2023-04-25T09:41:30;1.92;;;0.82;;
7515;SDS011;3799;47.184;8.538;2023-04-25T09:43:57;2.17;;;0.73;;
7515;SDS011;3799;47.184;8.538;2023-04-25T09:46:33;1.95;;;1.00;;
7515;SDS011;3799;47.184;8.538;2023-04-25T09:49:06;2.83;;;1.50;;
7515;SDS011;3799;47.184;8.538;2023-04-25T09:51:35;3.40;;;1.25;;
7515;SDS011;3799;47.184;8.538;2023-04-25T09:54:02;2.75;;;1.10;;
7515;SDS011;3799;47.184;8.538;2023-04-25T09:56:38;1.83;;;0.98;;
7515;SDS011;3799;47.184;8.538;2023-04-25T09:59:05;3.08;;;0.80;;
7515;SDS011;3799;47.184;8.538;2023-04-25T10:01:35;2.35;;;1.00;;
7515;SDS011;3799;47.184;8.538;2023-04-25T10:04:06;3.47;;;1.00;;
7515;SDS011;3799;47.184;8.538;2023-04-25T10:06:38;3.60;;;1.20;;
7515;SDS011;3799;47.184;8.538;2023-04-25T10:09:08;2.22;;;1.30;;
7515;SDS011;3799;47.184;8.538;2023-04-25T10:11:36;2.40;;;1.17;;
7515;SDS011;3799;47.184;8.538;2023-04-25T10:14:04;1.40;;;0.90;;
7515;SDS011;3799;47.184;8.538;2023-04-25T10:16:32;3.28;;;1.77;;
7515;SDS011;3799;47.184;8.538;2023-04-25T10:19:00;3.55;;;1.33;;
7515;SDS011;3799;47.184;8.538;2023-04-25T10:21:32;2.40;;;1.73;;
7515;SDS011;3799;47.184;8.538;2023-04-25T10:24:00;2.80;;;0.90;;
7515;SDS011;3799;47.184;8.538;2023-04-25T10:26:29;2.40;;;0.80;;
7515;SDS011;3799;47.184;8.538;2023-04-25T10:28:57;2.40;;;0.95;;
7515;SDS011;3799;47.184;8.538;2023-04-25T10:31:29;1.38;;;0.55;;
7515;SDS011;3799;47.184;8.538;2023-04-25T10:33:59;1.95;;;0.75;;
7515;SDS011;3799;47.184;8.538;2023-04-25T10:36:27;2.83;;;1.15;;
7515;SDS011;3799;47.184;8.538;2023-04-25T10:39:03;3.35;;;1.02;;
7515;SDS011;3799;47.184;8.538;2023-04-25T10:41:46;3.00;;;1.00;;
7515;SDS011;3799;47.184;8.538;2023-04-25T10:44:20;1.90;;;0.93;;
7515;SDS011;3799;47.184;8.538;2023-04-25T10:46:47;1.83;;;0.95;;
7515;SDS011;3799;47.184;8.538;2023-04-25T10:52:18;1.70;;;0.70;;
7515;SDS011;3799;47.184;8.538;2023-04-25T10:59:59;1.58;;;0.90;;
7515;SDS011;3799;47.184;8.538;2023-04-25T11:02:40;3.25;;;1.13;;
7515;SDS011;3799;47.184;8.538;2023-04-25T11:05:16;2.30;;;0.88;;
7515;SDS011;3799;47.184;8.538;2023-04-25T11:07:57;3.45;;;0.90;;
7515;SDS011;3799;47.184;8.538;2023-04-25T11:10:33;1.63;;;0.70;;
7515;SDS011;3799;47.184;8.538;2023-04-25T11:13:10;2.47;;;1.20;;
7515;SDS011;3799;47.184;8.538;2023-04-25T11:15:37;2.53;;;1.20;;
7515;SDS011;3799;47.184;8.538;2023-04-25T11:18:05;3.28;;;1.10;;
7515;SDS011;3799;47.184;8.538;2023-04-25T11:20:36;3.88;;;1.38;;
7515;SDS011;3799;47.184;8.538;2023-04-25T11:23:06;1.90;;;0.90;;
7515;SDS011;3799;47.184;8.538;2023-04-25T11:25:33;3.83;;;1.23;;
7515;SDS011;3799;47.184;8.538;2023-04-25T11:28:04;2.15;;;1.10;;
7515;SDS011;3799;47.184;8.538;2023-04-25T11:30:31;3.55;;;1.17;;
7515;SDS011;3799;47.184;8.538;2023-04-25T11:32:59;3.65;;;0.93;;
7515;SDS011;3799;47.184;8.538;2023-04-25T11:35:26;3.72;;;1.50;;
7515;SDS011;3799;47.184;8.538;2023-04-25T11:37:54;2.33;;;1.15;;
7515;SDS011;3799;47.184;8.538;2023-04-25T11:40:22;3.53;;;1.23;;
7515;SDS011;3799;47.184;8.538;2023-04-25T11:42:50;5.15;;;1.75;;
7515;SDS011;3799;47.184;8.538;2023-04-25T11:45:20;2.28;;;0.80;;
7515;SDS011;3799;47.184;8.538;2023-04-25T11:47:49;3.13;;;1.23;;
7515;SDS011;3799;47.184;8.538;2023-04-25T11:50:20;1.38;;;0.73;;
7515;SDS011;3799;47.184;8.538;2023-04-25T11:52:48;3.78;;;1.10;;
7515;SDS011;3799;47.184;8.538;2023-04-25T11:55:21;2.80;;;0.63;;
7515;SDS011;3799;47.184;8.538;2023-04-25T11:57:49;1.83;;;0.68;;
7515;SDS011;3799;47.184;8.538;2023-04-25T12:00:18;1.35;;;0.50;;
7515;SDS011;3799;47.184;8.538;2023-04-25T12:02:51;4.03;;;0.57;;
7515;SDS011;3799;47.184;8.538;2023-04-25T12:05:23;1.70;;;0.50;;
7515;SDS011;3799;47.184;8.538;2023-04-25T12:08:13;0.63;;;0.30;;
7515;SDS011;3799;47.184;8.538;2023-04-25T12:10:42;1.48;;;0.43;;
7515;SDS011;3799;47.184;8.538;2023-04-25T12:13:19;1.77;;;0.47;;
7515;SDS011;3799;47.184;8.538;2023-04-25T12:15:56;1.20;;;0.50;;
7515;SDS011;3799;47.184;8.538;2023-04-25T12:18:32;2.67;;;0.65;;
7515;SDS011;3799;47.184;8.538;2023-04-25T12:21:03;1.00;;;0.30;;
7515;SDS011;3799;47.184;8.538;2023-04-25T12:23:31;1.55;;;0.40;;
7515;SDS011;3799;47.184;8.538;2023-04-25T12:25:59;1.25;;;0.55;;
7515;SDS011;3799;47.184;8.538;2023-04-25T12:28:34;0.90;;;0.32;;
7515;SDS011;3799;47.184;8.538;2023-04-25T12:31:06;1.13;;;0.40;;
7515;SDS011;3799;47.184;8.538;2023-04-25T12:33:34;2.17;;;0.60;;
7515;SDS011;3799;47.184;8.538;2023-04-25T12:36:03;2.22;;;0.40;;
7515;SDS011;3799;47.184;8.538;2023-04-25T12:38:36;1.08;;;0.40;;
7515;SDS011;3799;47.184;8.538;2023-04-25T12:41:08;1.00;;;0.30;;
7515;SDS011;3799;47.184;8.538;2023-04-25T12:43:35;1.95;;;0.40;;
7515;SDS011;3799;47.184;8.538;2023-04-25T12:46:03;0.85;;;0.30;;
7515;SDS011;3799;47.184;8.538;2023-04-25T12:48:30;0.70;;;0.47;;
7515;SDS011;3799;47.184;8.538;2023-04-25T12:50:58;0.65;;;0.25;;
7515;SDS011;3799;47.184;8.538;2023-04-25T12:53:25;1.17;;;0.40;;
7515;SDS011;3799;47.184;8.538;2023-04-25T12:55:52;0.70;;;0.28;;
7515;SDS011;3799;47.184;8.538;2023-04-25T12:58:20;0.30;;;0.20;;
7515;SDS011;3799;47.184;8.538;2023-04-25T13:00:48;2.13;;;0.40;;
7515;SDS011;3799;47.184;8.538;2023-04-25T13:03:16;1.77;;;0.40;;
7515;SDS011;3799;47.184;8.538;2023-04-25T13:05:45;0.45;;;0.20;;
7515;SDS011;3799;47.184;8.538;2023-04-25T13:08:13;0.68;;;0.22;;
7515;SDS011;3799;47.184;8.538;2023-04-25T13:10:47;1.33;;;0.20;;
7515;SDS011;3799;47.184;8.538;2023-04-25T13:13:16;0.63;;;0.20;;
7515;SDS011;3799;47.184;8.538;2023-04-25T13:15:43;0.60;;;0.22;;
7515;SDS011;3799;47.184;8.538;2023-04-25T13:18:11;0.73;;;0.30;;
7515;SDS011;3799;47.184;8.538;2023-04-25T13:20:39;1.25;;;0.35;;
7515;SDS011;3799;47.184;8.538;2023-04-25T13:23:06;0.45;;;0.20;;
7515;SDS011;3799;47.184;8.538;2023-04-25T13:25:34;0.70;;;0.20;;
7515;SDS011;3799;47.184;8.538;2023-04-25T13:28:01;1.20;;;0.20;;
7515;SDS011;3799;47.184;8.538;2023-04-25T13:30:30;0.82;;;0.50;;
7515;SDS011;3799;47.184;8.538;2023-04-25T13:32:59;1.17;;;0.47;;
7515;SDS011;3799;47.184;8.538;2023-04-25T13:35:30;0.40;;;0.30;;
7515;SDS011;3799;47.184;8.538;2023-04-25T13:38:14;1.85;;;0.40;;
7515;SDS011;3799;47.184;8.538;2023-04-25T13:40:42;1.75;;;0.57;;
7515;SDS011;3799;47.184;8.538;2023-04-25T13:43:10;0.98;;;0.20;;
7515;SDS011;3799;47.184;8.538;2023-04-25T13:45:37;0.77;;;0.13;;
7515;SDS011;3799;47.184;8.538;2023-04-25T13:48:06;1.00;;;0.20;;
7515;SDS011;3799;47.184;8.538;2023-04-25T13:50:33;1.15;;;0.50;;
7515;SDS011;3799;47.184;8.538;2023-04-25T13:53:01;0.70;;;0.20;;
7515;SDS011;3799;47.184;8.538;2023-04-25T13:55:29;0.63;;;0.15;;
7515;SDS011;3799;47.184;8.538;2023-04-25T13:57:57;1.45;;;0.38;;
7515;SDS011;3799;47.184;8.538;2023-04-25T14:00:24;1.40;;;0.25;;
7515;SDS011;3799;47.184;8.538;2023-04-25T14:02:51;0.90;;;0.20;;
7515;SDS011;3799;47.184;8.538;2023-04-25T14:05:20;2.42;;;0.50;;
7515;SDS011;3799;47.184;8.538;2023-04-25T14:07:48;0.90;;;0.32;;
7515;SDS011;3799;47.184;8.538;2023-04-25T14:10:15;0.95;;;0.35;;
7515;SDS011;3799;47.184;8.538;2023-04-25T14:12:42;0.70;;;0.28;;
7515;SDS011;3799;47.184;8.538;2023-04-25T14:15:10;1.65;;;0.30;;
7515;SDS011;3799;47.184;8.538;2023-04-25T14:17:37;1.13;;;0.45;;
7515;SDS011;3799;47.184;8.538;2023-04-25T14:20:06;0.43;;;0.30;;
7515;SDS011;3799;47.184;8.538;2023-04-25T14:22:35;0.50;;;0.13;;
7515;SDS011;3799;47.184;8.538;2023-04-25T14:25:03;1.17;;;0.30;;
7515;SDS011;3799;47.184;8.538;2023-04-25T14:27:32;1.75;;;0.40;;
7515;SDS011;3799;47.184;8.538;2023-04-25T14:29:59;0.52;;;0.28;;
7515;SDS011;3799;47.184;8.538;2023-04-25T14:32:29;0.47;;;0.40;;
7515;SDS011;3799;47.184;8.538;2023-04-25T14:34:58;1.05;;;0.50;;
7515;SDS011;3799;47.184;8.538;2023-04-25T14:37:26;0.85;;;0.38;;
7515;SDS011;3799;47.184;8.538;2023-04-25T14:39:56;2.15;;;0.38;;
7515;SDS011;3799;47.184;8.538;2023-04-25T14:44:51;0.95;;;0.40;;
7515;SDS011;3799;47.184;8.538;2023-04-25T14:47:18;0.68;;;0.30;;
7515;SDS011;3799;47.184;8.538;2023-04-25T14:49:46;2.33;;;0.20;;
7515;SDS011;3799;47.184;8.538;2023-04-25T14:52:18;0.73;;;0.40;;
7515;SDS011;3799;47.184;8.538;2023-04-25T14:54:46;0.85;;;0.20;;
7515;SDS011;3799;47.184;8.538;2023-04-25T14:57:14;1.13;;;0.30;;
7515;SDS011;3799;47.184;8.538;2023-04-25T14:59:42;1.55;;;0.43;;
7515;SDS011;3799;47.184;8.538;2023-04-25T15:02:10;0.95;;;0.28;;
7515;SDS011;3799;47.184;8.538;2023-04-25T15:04:38;0.63;;;0.28;;
7515;SDS011;3799;47.184;8.538;2023-04-25T15:07:05;1.08;;;0.43;;
7515;SDS011;3799;47.184;8.538;2023-04-25T15:09:33;0.93;;;0.30;;
7515;SDS011;3799;47.184;8.538;2023-04-25T15:12:00;1.00;;;0.20;;
7515;SDS011;3799;47.184;8.538;2023-04-25T15:14:29;0.73;;;0.20;;
7515;SDS011;3799;47.184;8.538;2023-04-25T15:16:56;0.93;;;0.40;;
7515;SDS011;3799;47.184;8.538;2023-04-25T15:19:24;2.55;;;0.45;;
7515;SDS011;3799;47.184;8.538;2023-04-25T15:21:52;1.67;;;0.70;;
7515;SDS011;3799;47.184;8.538;2023-04-25T15:24:20;0.90;;;0.30;;
7515;SDS011;3799;47.184;8.538;2023-04-25T15:26:50;2.15;;;0.50;;
7515;SDS011;3799;47.184;8.538;2023-04-25T15:29:18;3.05;;;0.70;;
7515;SDS011;3799;47.184;8.538;2023-04-25T15:31:46;1.30;;;0.30;;
7515;SDS011;3799;47.184;8.538;2023-04-25T15:34:14;1.88;;;0.40;;
7515;SDS011;3799;47.184;8.538;2023-04-25T15:36:41;0.77;;;0.30;;
7515;SDS011;3799;47.184;8.538;2023-04-25T15:39:09;1.17;;;0.30;;
7515;SDS011;3799;47.184;8.538;2023-04-25T15:41:42;0.55;;;0.25;;
7515;SDS011;3799;47.184;8.538;2023-04-25T15:44:10;1.80;;;0.32;;
7515;SDS011;3799;47.184;8.538;2023-04-25T15:46:38;1.50;;;0.60;;